Latest Weather Observations for Perth Airport

IDW60801

Issued at 11:03 pm WST Monday 24 April 2017 (issued every 30 minutes, with the page automatically refreshed every 10 minutes)

About weather observations | Map of weather stations | Latest weather observations for WA | Other Formats
Station Details ID: 009021 Name: PERTH AIRPORT Lat: -31.93 Lon: 115.98 Height: 15.4 m
Data from the previous 72 hours. | See also: Recent months at Perth Airport
Date/Time
WST
Temp
°C
App
Temp
°C
Dew
Point
°C
Rel
Hum
%
Delta-T
°C
Wind Press
QNH
hPa
Press
MSL
hPa
Rain since
9am
mm
Dir  Spd
km/h
Gust
km/h
Spd
kts
Gust
kts
24/10:30pm 17.1 13.9 12.0 72 2.8 SSW 20 26 11 14 1022.6 1022.6 0.0
24/10:00pm 17.3 14.6 12.8 75 2.5 SSW 19 22 10 12 1022.5 1022.5 0.0
24/09:30pm 18.0 15.4 13.2 73 2.7 SSW 19 26 10 14 1022.4 1022.4 0.0
24/09:00pm 18.0 16.3 13.6 75 2.5 SSW 15 17 8 9 1022.0 1022.0 0.0
24/08:30pm 18.4 17.0 13.4 72 2.8 SSW 13 17 7 9 1021.8 1021.8 0.0
24/08:00pm 18.5 16.5 13.8 74 2.7 SSW 17 19 9 10 1021.7 1021.7 0.0
24/07:30pm 19.1 17.0 13.7 71 3.1 SSW 17 22 9 12 1021.4 1021.4 0.0
24/07:00pm 19.6 17.1 13.4 67 3.5 SSW 19 24 10 13 1021.1 1021.1 0.0
24/06:30pm 20.3 16.9 12.5 61 4.4 SSW 22 28 12 15 1020.6 1020.6 0.0
24/06:00pm 21.2 17.7 12.1 56 5.1 SSW 22 30 12 16 1020.2 1020.2 0.0
24/05:30pm 22.2 18.5 12.7 55 5.4 SW 24 32 13 17 1019.8 1019.8 0.0
24/05:00pm 23.2 19.9 12.7 51 6.0 WSW 22 28 12 15 1019.5 1019.5 0.0
24/04:30pm 24.5 20.7 9.9 39 8.0 SW 20 28 11 15 1019.2 1019.2 0.0
24/04:00pm 24.6 20.6 10.5 41 7.8 SW 22 30 12 16 1019.1 1019.1 0.0
24/03:30pm 25.1 20.9 11.0 41 7.9 SW 24 32 13 17 1019.0 1019.0 0.0
24/03:00pm 25.1 21.3 11.2 41 7.8 WSW 22 32 12 17 1019.0 1019.0 0.0
24/02:30pm 25.1 21.6 11.0 41 7.9 W 20 28 11 15 1019.2 1019.2 0.0
24/02:00pm 25.5 22.0 8.6 34 9.1 S 17 28 9 15 1019.2 1019.2 0.0
24/01:30pm 25.6 22.7 9.8 37 8.7 SW 15 26 8 14 1019.6 1019.6 0.0
24/01:00pm 25.9 23.1 10.0 36 8.8 S 15 24 8 13 1019.9 1019.9 0.0
24/12:30pm 25.0 22.6 9.9 38 8.3 SSW 13 22 7 12 1020.4 1020.4 0.0
24/12:00pm 24.0 21.5 9.7 40 7.8 SSE 13 20 7 11 1020.8 1020.8 0.0
24/11:30am 24.2 22.6 10.2 41 7.7 SE 9 15 5 8 1021.3 1021.3 0.0
24/11:00am 23.0 21.9 12.0 50 6.2 ENE 9 17 5 9 1021.7 1021.7 0.0
24/10:30am 22.1 20.3 12.1 53 5.6 ENE 13 17 7 9 1022.1 1022.1 0.0
24/10:00am 20.8 18.1 11.8 56 5.0 ESE 17 19 9 10 1022.3 1022.3 0.0
24/09:30am 19.4 15.7 11.6 60 4.3 ENE 22 33 12 18 1022.5 1022.5 0.0
24/09:00am 18.8 15.7 11.7 63 3.9 ENE 19 28 10 15 1022.4 1022.4 0.0
24/08:30am 17.5 15.2 11.8 69 3.1 ENE 15 19 8 10 1022.5 1022.5 0.0
24/08:00am 16.8 14.9 11.8 72 2.7 ENE 13 15 7 8 1022.2 1022.2 0.0
24/07:30am 15.6 13.7 11.7 77 2.1 NE 13 17 7 9 1021.9 1021.9 0.0
24/07:00am 14.7 13.5 11.7 82 1.6 ENE 9 13 5 7 1021.5 1021.5 0.0
24/06:30am 14.8 12.8 11.6 81 1.7 ENE 13 17 7 9 1021.3 1021.3 0.0
24/06:00am 14.7 13.1 11.5 81 1.7 NE 11 13 6 7 1021.2 1021.2 0.0
24/05:30am 14.9 13.3 11.5 80 1.8 NE 11 13 6 7 1021.0 1021.0 0.0
24/05:00am 15.2 14.3 11.5 78 2.0 NNE 7 11 4 6 1020.9 1020.9 0.0
24/04:30am 15.6 14.4 11.5 76 2.2 ENE 9 15 5 8 1020.6 1020.6 0.0
24/04:00am 16.0 14.8 11.5 74 2.4 NE 9 17 5 9 1020.6 1020.6 0.0
24/03:30am 16.3 14.7 11.7 74 2.5 NE 11 15 6 8 1020.3 1020.3 0.0
24/03:00am 16.6 15.5 11.8 73 2.6 ENE 9 15 5 8 1020.3 1020.3 0.0
24/02:30am 16.7 12.7 11.9 73 2.6 E 24 32 13 17 1020.0 1020.0 0.0
24/02:00am 17.0 11.5 11.9 72 2.8 E 32 43 17 23 1019.9 1019.9 0.0
24/01:30am 17.1 12.0 12.0 72 2.8 E 30 37 16 20 1020.0 1020.0 0.0
24/01:00am 17.5 13.6 12.0 70 3.0 E 24 33 13 18 1020.1 1020.1 0.0
24/12:30am 17.9 14.4 12.1 69 3.2 E 22 30 12 16 1020.2 1020.2 0.0
24/12:00am 18.0 15.5 12.4 70 3.1 E 17 26 9 14 1020.5 1020.5 0.0
 
Date/Time
WST
Temp
°C
App
Temp
°C
Dew
Point
°C
Rel
Hum
%
Delta-T
°C
Wind Press
QNH
hPa
Press
MSL
hPa
Rain since
9am
mm
Dir  Spd
km/h
Gust
km/h
Spd
kts
Gust
kts
23/11:30pm 18.4 16.2 12.1 66 3.5 ENE 15 24 8 13 1020.7 1020.7 0.0
23/11:00pm 19.0 17.4 11.5 61 4.1 ENE 11 19 6 10 1020.4 1020.4 0.0
23/10:30pm 19.3 16.5 11.5 60 4.3 ENE 17 26 9 14 1020.6 1020.6 0.0
23/10:00pm 19.8 14.9 11.4 58 4.6 E 28 39 15 21 1020.4 1020.4 0.0
23/09:30pm 20.3 14.5 10.7 54 5.2 E 32 41 17 22 1020.2 1020.2 0.0
23/09:00pm 20.7 16.0 10.6 52 5.5 E 26 39 14 21 1020.0 1020.0 0.0
23/08:30pm 21.1 18.0 11.5 54 5.3 E 19 28 10 15 1019.9 1019.9 0.0
23/08:00pm 21.8 16.1 11.3 51 5.8 E 32 41 17 22 1019.6 1019.6 0.0
23/07:30pm 22.4 18.3 11.4 49 6.1 E 24 32 13 17 1019.4 1019.4 0.0
23/07:00pm 22.7 19.4 11.6 49 6.2 ESE 20 30 11 16 1018.8 1018.8 0.0
23/06:30pm 23.1 18.8 11.9 49 6.3 ESE 26 39 14 21 1018.5 1018.5 0.0
23/06:00pm 23.7 19.5 12.5 49 6.4 SE 26 37 14 20 1018.1 1018.1 0.0
23/05:30pm 24.6 20.8 12.4 46 7.0 SE 24 35 13 19 1018.0 1018.0 0.0
23/05:00pm 25.7 21.0 12.1 42 7.8 SE 28 35 15 19 1017.7 1017.7 0.0
23/04:30pm 27.1 21.7 10.8 36 9.2 S 30 37 16 20 1017.0 1017.0 0.0
23/04:00pm 26.9 24.1 11.2 37 8.9 SSE 17 24 9 13 1017.0 1017.0 0.0
23/03:30pm 27.7 24.3 10.5 34 9.7 ESE 19 30 10 16 1017.0 1017.0 0.0
23/03:00pm 27.9 23.8 11.3 35 9.5 SE 24 30 13 16 1017.0 1017.0 0.0
23/02:30pm 28.0 24.9 11.6 36 9.4 SSE 19 26 10 14 1017.2 1017.2 0.0
23/02:00pm 27.5 24.9 11.9 38 9.0 ESE 17 28 9 15 1017.3 1017.3 0.0
23/01:30pm 27.4 25.4 12.6 40 8.6 SE 15 30 8 16 1017.5 1017.5 0.0
23/01:00pm 26.6 24.2 12.6 42 8.1 SE 17 30 9 16 1018.0 1018.0 0.0
23/12:30pm 26.4 24.0 12.8 43 7.9 E 17 26 9 14 1018.3 1018.3 0.0
23/12:00pm 25.6 22.6 12.4 43 7.6 E 20 30 11 16 1018.8 1018.8 0.0
23/11:30am 25.1 21.4 12.8 46 7.1 E 24 32 13 17 1019.2 1019.2 0.0
23/11:00am 24.5 21.5 12.7 47 6.8 E 20 33 11 18 1019.6 1019.6 0.0
23/10:30am 24.3 20.0 13.1 49 6.5 E 28 37 15 20 1020.0 1020.0 0.0
23/10:00am 23.0 19.4 13.1 53 5.7 E 24 35 13 19 1020.2 1020.2 0.0
23/09:30am 21.5 17.2 13.1 58 4.8 E 28 41 15 22 1020.4 1020.4 0.0
23/09:00am 20.9 17.4 13.4 62 4.3 E 24 39 13 21 1020.7 1020.7 0.0
23/08:30am 20.1 17.9 13.4 65 3.8 ESE 17 26 9 14 1020.9 1020.9 0.0
23/08:00am 19.0 16.4 13.3 69 3.2 ESE 19 30 10 16 1020.7 1020.7 0.0
23/07:30am 18.0 16.7 13.8 76 2.4 E 13 17 7 9 1020.5 1020.5 0.0
23/07:00am 16.9 15.6 13.7 81 1.8 E 13 19 7 10 1020.3 1020.3 0.0
23/06:30am 17.2 15.5 13.5 79 2.1 E 15 24 8 13 1020.2 1020.2 0.0
23/06:00am 17.5 16.6 13.6 78 2.2 E 11 19 6 10 1020.0 1020.0 0.0
23/05:30am 17.7 16.0 13.6 77 2.3 ESE 15 24 8 13 1019.9 1019.9 0.0
23/05:00am 17.6 15.0 13.7 78 2.2 ESE 20 33 11 18 1019.8 1019.8 0.0
23/04:30am 17.9 16.6 13.7 76 2.4 ESE 13 28 7 15 1019.9 1019.9 0.0
23/04:00am 18.3 17.3 13.5 73 2.7 ESE 11 22 6 12 1019.7 1019.7 0.0
23/03:30am 18.4 17.5 13.6 73 2.7 SSE 11 17 6 9 1019.6 1019.6 0.0
23/03:00am 18.6 18.4 13.7 73 2.8 SW 7 13 4 7 1019.6 1019.6 0.0
23/02:30am 18.6 16.2 13.9 74 2.7 ESE 19 33 10 18 1019.3 1019.3 0.0
23/02:00am 18.8 15.5 13.9 73 2.8 ESE 24 39 13 21 1019.2 1019.2 0.0
23/01:30am 19.0 14.9 13.9 72 2.9 ESE 28 39 15 21 1019.2 1019.2 0.0
23/01:00am 19.2 13.8 14.0 72 3.0 ESE 35 50 19 27 1019.2 1019.2 0.0
23/12:30am 19.1 13.3 14.0 72 2.9 ESE 37 52 20 28 1019.3 1019.3 0.0
23/12:01am 19.3 14.9 14.1 72 3.0 E 30 50 16 27 1019.3 1019.3 0.0
23/12:00am 19.3 14.9 14.1 72 3.0 E 30 41 16 22 1019.3 1019.3 0.0
 
Date/Time
WST
Temp
°C
App
Temp
°C
Dew
Point
°C
Rel
Hum
%
Delta-T
°C
Wind Press
QNH
hPa
Press
MSL
hPa
Rain since
9am
mm
Dir  Spd
km/h
Gust
km/h
Spd
kts
Gust
kts
22/11:30pm 19.5 14.7 14.1 71 3.1 E 32 43 17 23 1019.6 1019.6 0.0
22/11:00pm 19.8 15.3 13.9 69 3.4 E 30 41 16 22 1019.8 1019.8 0.0
22/10:30pm 20.3 16.3 14.1 67 3.6 ESE 28 37 15 20 1019.9 1019.9 0.0
22/10:00pm 20.7 16.8 14.5 67 3.6 ESE 28 41 15 22 1020.0 1020.0 0.0
22/09:30pm 20.8 17.3 14.4 67 3.7 ESE 26 39 14 21 1019.9 1019.9 0.0
22/09:00pm 21.1 17.6 14.4 65 3.9 ESE 26 35 14 19 1019.6 1019.6 0.0
22/08:30pm 21.4 16.7 14.4 64 4.1 ESE 32 39 17 21 1019.4 1019.4 0.0
22/08:00pm 22.0 19.5 14.1 61 4.6 SE 20 33 11 18 1019.2 1019.2 0.0
22/07:30pm 22.8 20.2 13.7 56 5.3 SE 20 28 11 15 1019.1 1019.1 0.0
22/07:00pm 23.2 21.1 14.6 58 5.1 S 19 28 10 15 1018.8 1018.8 0.0
22/06:30pm 23.8 22.3 14.3 55 5.6 SSW 15 17 8 9 1018.5 1018.5 0.0
22/06:00pm 24.1 22.6 14.3 54 5.8 SW 15 19 8 10 1018.2 1018.2 0.0
22/05:30pm 25.3 23.2 13.5 48 6.9 SW 17 20 9 11 1017.9 1017.9 0.0
22/05:00pm 26.1 23.6 13.5 45 7.4 SW 19 26 10 14 1017.6 1017.6 0.0
22/04:30pm 26.6 23.0 13.1 43 7.9 SW 24 28 13 15 1017.4 1017.4 0.0
22/04:00pm 27.6 23.9 12.7 39 8.7 WSW 24 32 13 17 1017.2 1017.2 0.0
22/03:30pm 27.4 23.7 12.6 40 8.6 SW 24 33 13 18 1017.2 1017.2 0.0
22/03:00pm 28.4 25.7 12.9 38 9.1 WSW 19 26 10 14 1017.0 1017.0 0.0
22/02:30pm 28.1 25.4 12.9 39 8.9 WSW 19 28 10 15 1017.2 1017.2 0.0
22/02:00pm 28.1 25.1 10.6 33 9.9 SW 17 24 9 13 1017.3 1017.3 0.0
22/01:30pm 27.8 25.5 11.6 36 9.3 WSW 15 20 8 11 1017.5 1017.5 0.0
22/01:00pm 27.7 25.8 11.9 37 9.1 SW 13 19 7 10 1017.9 1017.9 0.0
22/12:30pm 28.0 25.7 11.9 36 9.3 WSW 15 22 8 12 1018.5 1018.5 0.0
22/12:00pm 27.4 26.4 12.4 39 8.7 WSW 9 15 5 8 1018.9 1018.9 0.0
22/11:30am 27.3 26.3 12.3 39 8.7 SW 9 13 5 7 1018.9 1018.9 0.0
22/11:00am 26.3 26.1 13.1 44 7.7 NW 6 11 3 6 1019.2 1019.2 0.0
22/10:30am 25.0 24.2 12.9 47 7.0 E 9 13 5 7 1019.4 1019.4 0.0
22/10:00am 24.4 23.3 13.0 49 6.6 E 11 15 6 8 1019.6 1019.6 0.0
22/09:30am 22.5 19.7 12.7 54 5.6 ENE 19 26 10 14 1019.7 1019.7 0.0
22/09:00am 21.7 18.0 12.7 56 5.1 ENE 24 30 13 16 1019.8 1019.8 0.0
22/08:30am 20.6 17.8 12.6 60 4.5 ENE 19 26 10 14 1019.8 1019.8 0.0
22/08:00am 19.3 17.7 12.7 65 3.7 ENE 13 17 7 9 1019.6 1019.6 0.0
22/07:30am 18.8 17.2 12.7 67 3.4 ENE 13 17 7 9 1019.2 1019.2 0.0
22/07:00am 18.4 16.8 12.7 69 3.2 ENE 13 15 7 8 1018.7 1018.7 0.0
22/06:30am 18.4 16.4 12.7 69 3.2 ENE 15 17 8 9 1018.5 1018.5 0.0
22/06:00am 18.4 17.9 12.7 69 3.2 ENE 7 11 4 6 1018.3 1018.3 0.0
22/05:30am 18.6 17.7 12.7 68 3.3 E 9 11 5 6 1018.2 1018.2 0.0
22/05:00am 18.7 17.8 12.6 67 3.4 E 9 9 5 5 1018.0 1018.0 0.0
22/04:30am 18.0 18.9 12.8 71 2.9 CALM 0 0 0 0 1017.9 1017.9 0.0
22/04:00am 16.9 17.8 12.8 77 2.3 CALM 0 0 0 0 1017.7 1017.7 0.0
22/03:30am 17.3 17.7 12.4 73 2.7 NE 2 6 1 3 1017.5 1017.5 0.0
22/03:00am 15.1 15.2 12.7 85 1.3 N 4 7 2 4 1017.7 1017.7 0.0
22/02:30am 15.8 15.6 12.9 83 1.6 NNW 6 7 3 4 1017.9 1017.9 0.0
22/02:00am 16.9 16.1 12.9 77 2.2 NW 9 11 5 6 1018.0 1018.0 0.0
22/01:30am 16.3 15.8 12.5 78 2.1 NW 7 9 4 5 1018.0 1018.0 0.0
22/01:00am 15.9 16.3 12.4 80 1.9 N 2 9 1 5 1017.9 1017.9 0.0
22/12:30am 15.9 14.8 12.0 77 2.1 SW 9 9 5 5 1018.0 1018.0 0.0
22/12:00am 15.2 14.1 11.9 81 1.8 SW 9 13 5 7 1018.0 1018.0 0.0
 
Date/Time
WST
Temp
°C
App
Temp
°C
Dew
Point
°C
Rel
Hum
%
Delta-T
°C
Wind Press
QNH
hPa
Press
MSL
hPa
Rain since
9am
mm
Dir  Spd
km/h
Gust
km/h
Spd
kts
Gust
kts
21/11:30pm 16.2 17.0 12.6 79 2.0 CALM 0 0 0 0 1018.0 1018.0 0.0

Other Formats:

Comma delimited format used in spreadsheet applications
http://www.bom.gov.au/fwo/IDW60801/IDW60801.94610.axf

JavaScript Object Notation format (JSON) in row-major order
http://www.bom.gov.au/fwo/IDW60801/IDW60801.94610.json